Amelia, Nebraska
Current Conditions -  °F | °C
As of 7:35 AM on Tuesday 21 Oct 2014 (Local Time) from KONL Reporting Station
Clear Clear  
Wind Chill:   Ceiling: Unl
Heat Index:   Visibility: 10mi
Dew Point:   Wind: 6mph
Humidity: 86%   Direction: 150°SSE
Pressure: 30.03"   Gusts: NA
Location:  42.24°N, 98.91°W
Report Text: KONL 211235Z AUTO 15005KT 10SM CLR 08/05 A3003 RMK AO2 T00750053
Loading
Personal Weather Stations






























Interactive Weather Map
Tropical Storm Tracking
New forecast layout! Learn more

10-Day Weather Forecast

Advertisements
Track Severe Weather on mobile